sensor_id;sensor_type;location;lat;lon;timestamp;temperature;humidity
58993;DHT22;44782;0.000;0.000;2022-07-18T00:01:21;26.70;44.20
58993;DHT22;44782;0.000;0.000;2022-07-18T00:03:36;26.70;44.20
58993;DHT22;44782;0.000;0.000;2022-07-18T00:05:55;26.70;44.30
58993;DHT22;44782;0.000;0.000;2022-07-18T00:08:11;26.70;44.50
58993;DHT22;44782;0.000;0.000;2022-07-18T00:10:26;26.70;43.60
58993;DHT22;44782;0.000;0.000;2022-07-18T00:12:42;26.60;43.40
58993;DHT22;44782;0.000;0.000;2022-07-18T00:14:58;26.60;43.20
58993;DHT22;44782;0.000;0.000;2022-07-18T00:17:14;26.60;42.60
58993;DHT22;44782;0.000;0.000;2022-07-18T00:19:30;26.60;42.30
58993;DHT22;44782;0.000;0.000;2022-07-18T00:21:46;26.60;42.80
58993;DHT22;44782;0.000;0.000;2022-07-18T00:24:02;26.60;41.70
58993;DHT22;44782;0.000;0.000;2022-07-18T00:26:18;26.60;41.90
58993;DHT22;44782;0.000;0.000;2022-07-18T00:28:33;26.60;41.60
58993;DHT22;44782;0.000;0.000;2022-07-18T00:30:49;26.50;42.10
58993;DHT22;44782;0.000;0.000;2022-07-18T00:33:04;26.50;41.60
58993;DHT22;44782;0.000;0.000;2022-07-18T00:35:20;26.50;41.90
58993;DHT22;44782;0.000;0.000;2022-07-18T00:37:36;26.50;42.00
58993;DHT22;44782;0.000;0.000;2022-07-18T00:39:51;26.50;41.80
58993;DHT22;44782;0.000;0.000;2022-07-18T00:42:07;26.50;41.60
58993;DHT22;44782;0.000;0.000;2022-07-18T00:44:25;26.40;41.30
58993;DHT22;44782;0.000;0.000;2022-07-18T00:46:41;26.40;41.20
58993;DHT22;44782;0.000;0.000;2022-07-18T00:48:56;26.40;41.10
58993;DHT22;44782;0.000;0.000;2022-07-18T00:51:12;26.50;41.20
58993;DHT22;44782;0.000;0.000;2022-07-18T00:53:27;26.40;41.50
58993;DHT22;44782;0.000;0.000;2022-07-18T00:55:45;26.40;41.10
58993;DHT22;44782;0.000;0.000;2022-07-18T00:58:02;26.40;41.20
58993;DHT22;44782;0.000;0.000;2022-07-18T01:00:17;26.40;41.30
58993;DHT22;44782;0.000;0.000;2022-07-18T01:02:52;26.30;41.30
58993;DHT22;44782;0.000;0.000;2022-07-18T01:05:08;26.30;41.00
58993;DHT22;44782;0.000;0.000;2022-07-18T01:07:24;26.30;40.80
58993;DHT22;44782;0.000;0.000;2022-07-18T01:09:39;26.30;41.20
58993;DHT22;44782;0.000;0.000;2022-07-18T01:11:55;26.30;40.90
58993;DHT22;44782;0.000;0.000;2022-07-18T01:14:11;26.30;40.90
58993;DHT22;44782;0.000;0.000;2022-07-18T01:16:28;26.30;40.80
58993;DHT22;44782;0.000;0.000;2022-07-18T01:18:47;26.30;40.80
58993;DHT22;44782;0.000;0.000;2022-07-18T01:21:03;26.20;40.60
58993;DHT22;44782;0.000;0.000;2022-07-18T01:23:19;26.30;40.90
58993;DHT22;44782;0.000;0.000;2022-07-18T01:25:35;26.20;40.70
58993;DHT22;44782;0.000;0.000;2022-07-18T01:27:50;26.20;40.50
58993;DHT22;44782;0.000;0.000;2022-07-18T01:30:07;26.20;40.40
58993;DHT22;44782;0.000;0.000;2022-07-18T01:32:23;26.20;40.20
58993;DHT22;44782;0.000;0.000;2022-07-18T01:34:39;26.20;40.00
58993;DHT22;44782;0.000;0.000;2022-07-18T01:36:55;26.20;40.60
58993;DHT22;44782;0.000;0.000;2022-07-18T01:39:10;26.20;39.90
58993;DHT22;44782;0.000;0.000;2022-07-18T01:41:26;26.10;39.80
58993;DHT22;44782;0.000;0.000;2022-07-18T01:43:42;26.10;39.70
58993;DHT22;44782;0.000;0.000;2022-07-18T01:45:57;26.10;39.60
58993;DHT22;44782;0.000;0.000;2022-07-18T01:48:13;26.10;39.60
58993;DHT22;44782;0.000;0.000;2022-07-18T01:50:29;26.10;39.50
58993;DHT22;44782;0.000;0.000;2022-07-18T01:52:44;26.10;39.40
58993;DHT22;44782;0.000;0.000;2022-07-18T01:55:01;26.00;39.40
58993;DHT22;44782;0.000;0.000;2022-07-18T01:57:17;26.00;39.40
58993;DHT22;44782;0.000;0.000;2022-07-18T01:59:32;26.00;39.50
58993;DHT22;44782;0.000;0.000;2022-07-18T02:01:49;26.00;39.40
58993;DHT22;44782;0.000;0.000;2022-07-18T02:04:05;26.00;39.40
58993;DHT22;44782;0.000;0.000;2022-07-18T02:06:21;26.00;39.40
58993;DHT22;44782;0.000;0.000;2022-07-18T02:08:36;26.00;39.40
58993;DHT22;44782;0.000;0.000;2022-07-18T02:10:52;25.90;39.40
58993;DHT22;44782;0.000;0.000;2022-07-18T02:13:08;25.90;39.30
58993;DHT22;44782;0.000;0.000;2022-07-18T02:15:23;25.90;39.30
58993;DHT22;44782;0.000;0.000;2022-07-18T02:17:39;25.90;39.40
58993;DHT22;44782;0.000;0.000;2022-07-18T02:19:55;25.90;39.30
58993;DHT22;44782;0.000;0.000;2022-07-18T02:22:10;25.90;39.30
58993;DHT22;44782;0.000;0.000;2022-07-18T02:24:26;25.80;39.30
58993;DHT22;44782;0.000;0.000;2022-07-18T02:26:42;25.80;39.30
58993;DHT22;44782;0.000;0.000;2022-07-18T02:28:57;25.80;39.40
58993;DHT22;44782;0.000;0.000;2022-07-18T02:31:13;25.80;39.50
58993;DHT22;44782;0.000;0.000;2022-07-18T02:33:29;25.80;39.30
58993;DHT22;44782;0.000;0.000;2022-07-18T02:35:44;25.70;39.90
58993;DHT22;44782;0.000;0.000;2022-07-18T02:38:00;25.70;39.30
58993;DHT22;44782;0.000;0.000;2022-07-18T02:40:16;25.60;39.40
58993;DHT22;44782;0.000;0.000;2022-07-18T02:42:32;25.60;39.60
58993;DHT22;44782;0.000;0.000;2022-07-18T02:44:47;25.60;39.60
58993;DHT22;44782;0.000;0.000;2022-07-18T02:47:03;25.60;39.60
58993;DHT22;44782;0.000;0.000;2022-07-18T02:49:19;25.60;39.60
58993;DHT22;44782;0.000;0.000;2022-07-18T02:51:43;25.60;39.70
58993;DHT22;44782;0.000;0.000;2022-07-18T02:53:59;25.60;39.70
58993;DHT22;44782;0.000;0.000;2022-07-18T02:56:15;25.60;39.70
58993;DHT22;44782;0.000;0.000;2022-07-18T02:58:30;25.60;39.70
58993;DHT22;44782;0.000;0.000;2022-07-18T03:00:47;25.60;39.70
58993;DHT22;44782;0.000;0.000;2022-07-18T03:03:03;25.60;39.70
58993;DHT22;44782;0.000;0.000;2022-07-18T03:05:18;25.60;39.80
58993;DHT22;44782;0.000;0.000;2022-07-18T03:07:34;25.60;39.90
58993;DHT22;44782;0.000;0.000;2022-07-18T03:09:50;25.60;40.00
58993;DHT22;44782;0.000;0.000;2022-07-18T03:12:06;25.50;39.80
58993;DHT22;44782;0.000;0.000;2022-07-18T03:14:22;25.50;39.90
58993;DHT22;44782;0.000;0.000;2022-07-18T03:16:38;25.50;39.70
58993;DHT22;44782;0.000;0.000;2022-07-18T03:18:53;25.50;39.70
58993;DHT22;44782;0.000;0.000;2022-07-18T03:21:09;25.50;39.80
58993;DHT22;44782;0.000;0.000;2022-07-18T03:23:25;25.50;39.80
58993;DHT22;44782;0.000;0.000;2022-07-18T03:25:40;25.50;39.80
58993;DHT22;44782;0.000;0.000;2022-07-18T03:27:56;25.40;39.80
58993;DHT22;44782;0.000;0.000;2022-07-18T03:30:12;25.50;39.90
58993;DHT22;44782;0.000;0.000;2022-07-18T03:32:28;25.50;40.00
58993;DHT22;44782;0.000;0.000;2022-07-18T03:34:43;25.50;40.20
58993;DHT22;44782;0.000;0.000;2022-07-18T03:36:59;25.50;40.30
58993;DHT22;44782;0.000;0.000;2022-07-18T03:39:15;25.50;40.40
58993;DHT22;44782;0.000;0.000;2022-07-18T03:41:30;25.50;40.50
58993;DHT22;44782;0.000;0.000;2022-07-18T03:43:46;25.50;40.40
58993;DHT22;44782;0.000;0.000;2022-07-18T03:46:02;25.50;40.60
58993;DHT22;44782;0.000;0.000;2022-07-18T03:48:18;25.50;40.70
58993;DHT22;44782;0.000;0.000;2022-07-18T03:50:33;25.50;40.70
58993;DHT22;44782;0.000;0.000;2022-07-18T03:52:49;25.40;40.70
58993;DHT22;44782;0.000;0.000;2022-07-18T03:55:05;25.40;40.70
58993;DHT22;44782;0.000;0.000;2022-07-18T03:57:21;25.40;40.80
58993;DHT22;44782;0.000;0.000;2022-07-18T03:59:36;25.50;41.00
58993;DHT22;44782;0.000;0.000;2022-07-18T04:01:52;25.40;41.10
58993;DHT22;44782;0.000;0.000;2022-07-18T04:04:08;25.40;41.20
58993;DHT22;44782;0.000;0.000;2022-07-18T04:06:23;25.40;41.30
58993;DHT22;44782;0.000;0.000;2022-07-18T04:08:39;25.40;41.30
58993;DHT22;44782;0.000;0.000;2022-07-18T04:10:55;25.40;41.30
58993;DHT22;44782;0.000;0.000;2022-07-18T04:13:11;25.40;41.30
58993;DHT22;44782;0.000;0.000;2022-07-18T04:15:27;25.40;41.30
58993;DHT22;44782;0.000;0.000;2022-07-18T04:17:42;25.40;41.40
58993;DHT22;44782;0.000;0.000;2022-07-18T04:19:58;25.40;41.40
58993;DHT22;44782;0.000;0.000;2022-07-18T04:22:13;25.40;41.50
58993;DHT22;44782;0.000;0.000;2022-07-18T04:24:29;25.40;41.60
58993;DHT22;44782;0.000;0.000;2022-07-18T04:26:45;25.40;41.70
58993;DHT22;44782;0.000;0.000;2022-07-18T04:29:00;25.40;41.70
58993;DHT22;44782;0.000;0.000;2022-07-18T04:31:16;25.40;41.70
58993;DHT22;44782;0.000;0.000;2022-07-18T04:33:32;25.40;41.70
58993;DHT22;44782;0.000;0.000;2022-07-18T04:35:48;25.40;41.70
58993;DHT22;44782;0.000;0.000;2022-07-18T04:38:05;25.40;41.50
58993;DHT22;44782;0.000;0.000;2022-07-18T04:40:21;25.40;41.60
58993;DHT22;44782;0.000;0.000;2022-07-18T04:42:37;25.40;41.80
58993;DHT22;44782;0.000;0.000;2022-07-18T04:44:53;25.30;41.70
58993;DHT22;44782;0.000;0.000;2022-07-18T04:47:08;25.40;41.70
58993;DHT22;44782;0.000;0.000;2022-07-18T04:49:24;25.40;41.10
58993;DHT22;44782;0.000;0.000;2022-07-18T04:51:40;25.30;40.60
58993;DHT22;44782;0.000;0.000;2022-07-18T04:53:55;25.20;40.50
58993;DHT22;44782;0.000;0.000;2022-07-18T04:56:11;25.10;40.50
58993;DHT22;44782;0.000;0.000;2022-07-18T04:58:27;25.00;40.70
58993;DHT22;44782;0.000;0.000;2022-07-18T05:00:42;24.90;40.90
58993;DHT22;44782;0.000;0.000;2022-07-18T05:02:58;24.80;40.90
58993;DHT22;44782;0.000;0.000;2022-07-18T05:05:15;24.80;41.10
58993;DHT22;44782;0.000;0.000;2022-07-18T05:07:30;24.70;41.10
58993;DHT22;44782;0.000;0.000;2022-07-18T05:09:46;24.70;41.20
58993;DHT22;44782;0.000;0.000;2022-07-18T05:12:02;24.70;41.20
58993;DHT22;44782;0.000;0.000;2022-07-18T05:14:18;24.70;41.20
58993;DHT22;44782;0.000;0.000;2022-07-18T05:16:33;24.70;41.30
58993;DHT22;44782;0.000;0.000;2022-07-18T05:18:49;24.70;41.00
58993;DHT22;44782;0.000;0.000;2022-07-18T05:21:04;24.70;41.00
58993;DHT22;44782;0.000;0.000;2022-07-18T05:23:20;24.70;41.10
58993;DHT22;44782;0.000;0.000;2022-07-18T05:25:38;24.70;41.20
58993;DHT22;44782;0.000;0.000;2022-07-18T05:27:54;24.70;41.20
58993;DHT22;44782;0.000;0.000;2022-07-18T05:30:12;24.60;41.30
58993;DHT22;44782;0.000;0.000;2022-07-18T05:32:28;24.60;41.30
58993;DHT22;44782;0.000;0.000;2022-07-18T05:34:43;24.60;41.20
58993;DHT22;44782;0.000;0.000;2022-07-18T05:36:59;24.60;41.20
58993;DHT22;44782;0.000;0.000;2022-07-18T05:39:15;24.60;41.20
58993;DHT22;44782;0.000;0.000;2022-07-18T05:41:30;24.60;41.30
58993;DHT22;44782;0.000;0.000;2022-07-18T05:43:46;24.60;41.40
58993;DHT22;44782;0.000;0.000;2022-07-18T05:46:02;24.60;41.40
58993;DHT22;44782;0.000;0.000;2022-07-18T05:48:17;24.60;41.50
58993;DHT22;44782;0.000;0.000;2022-07-18T05:50:33;24.60;41.50
58993;DHT22;44782;0.000;0.000;2022-07-18T05:52:49;24.70;41.60
58993;DHT22;44782;0.000;0.000;2022-07-18T05:55:05;24.70;41.60
58993;DHT22;44782;0.000;0.000;2022-07-18T05:57:21;24.70;41.60
58993;DHT22;44782;0.000;0.000;2022-07-18T05:59:37;24.70;41.50
58993;DHT22;44782;0.000;0.000;2022-07-18T06:01:52;24.70;41.60
58993;DHT22;44782;0.000;0.000;2022-07-18T06:04:08;24.80;41.80
58993;DHT22;44782;0.000;0.000;2022-07-18T06:06:24;24.80;41.80
58993;DHT22;44782;0.000;0.000;2022-07-18T06:08:40;24.80;41.90
58993;DHT22;44782;0.000;0.000;2022-07-18T06:10:56;24.80;41.90
58993;DHT22;44782;0.000;0.000;2022-07-18T06:13:12;24.80;42.00
58993;DHT22;44782;0.000;0.000;2022-07-18T06:15:27;24.80;42.00
58993;DHT22;44782;0.000;0.000;2022-07-18T06:17:43;24.80;42.10
58993;DHT22;44782;0.000;0.000;2022-07-18T06:19:59;24.80;42.00
58993;DHT22;44782;0.000;0.000;2022-07-18T06:22:14;24.90;41.90
58993;DHT22;44782;0.000;0.000;2022-07-18T06:24:30;24.90;41.80
58993;DHT22;44782;0.000;0.000;2022-07-18T06:26:46;25.00;42.00
58993;DHT22;44782;0.000;0.000;2022-07-18T06:29:01;25.10;41.90
58993;DHT22;44782;0.000;0.000;2022-07-18T06:31:17;25.20;41.90
58993;DHT22;44782;0.000;0.000;2022-07-18T06:33:33;25.20;41.70
58993;DHT22;44782;0.000;0.000;2022-07-18T06:35:50;25.30;41.80
58993;DHT22;44782;0.000;0.000;2022-07-18T06:38:05;25.40;41.60
58993;DHT22;44782;0.000;0.000;2022-07-18T06:40:21;25.40;41.30
58993;DHT22;44782;0.000;0.000;2022-07-18T06:42:40;25.50;41.20
58993;DHT22;44782;0.000;0.000;2022-07-18T06:44:56;25.60;41.50
58993;DHT22;44782;0.000;0.000;2022-07-18T06:47:11;25.70;41.00
58993;DHT22;44782;0.000;0.000;2022-07-18T06:49:27;25.70;40.80
58993;DHT22;44782;0.000;0.000;2022-07-18T06:51:42;25.80;40.80
58993;DHT22;44782;0.000;0.000;2022-07-18T06:53:58;25.80;40.70
58993;DHT22;44782;0.000;0.000;2022-07-18T06:56:14;25.90;40.70
58993;DHT22;44782;0.000;0.000;2022-07-18T06:58:29;26.00;40.50
58993;DHT22;44782;0.000;0.000;2022-07-18T07:00:49;26.10;40.30
58993;DHT22;44782;0.000;0.000;2022-07-18T07:03:05;26.20;40.20
58993;DHT22;44782;0.000;0.000;2022-07-18T07:05:21;26.30;40.10
58993;DHT22;44782;0.000;0.000;2022-07-18T07:07:37;26.30;39.90
58993;DHT22;44782;0.000;0.000;2022-07-18T07:09:53;26.40;39.80
58993;DHT22;44782;0.000;0.000;2022-07-18T07:12:08;26.40;39.80
58993;DHT22;44782;0.000;0.000;2022-07-18T07:14:25;26.40;39.70
58993;DHT22;44782;0.000;0.000;2022-07-18T07:16:40;26.40;39.80
58993;DHT22;44782;0.000;0.000;2022-07-18T07:18:56;26.40;39.80
58993;DHT22;44782;0.000;0.000;2022-07-18T07:21:12;26.40;39.90
58993;DHT22;44782;0.000;0.000;2022-07-18T07:23:27;26.50;40.00
58993;DHT22;44782;0.000;0.000;2022-07-18T07:25:43;26.50;40.00
58993;DHT22;44782;0.000;0.000;2022-07-18T07:27:59;26.50;40.00
58993;DHT22;44782;0.000;0.000;2022-07-18T07:30:15;26.50;40.10
58993;DHT22;44782;0.000;0.000;2022-07-18T07:32:38;26.50;40.00
58993;DHT22;44782;0.000;0.000;2022-07-18T07:34:53;26.60;39.90
58993;DHT22;44782;0.000;0.000;2022-07-18T07:37:09;26.50;40.00
58993;DHT22;44782;0.000;0.000;2022-07-18T07:39:24;26.50;40.70
58993;DHT22;44782;0.000;0.000;2022-07-18T07:41:40;26.50;40.00
58993;DHT22;44782;0.000;0.000;2022-07-18T07:43:56;26.60;40.00
58993;DHT22;44782;0.000;0.000;2022-07-18T07:46:11;26.50;40.00
58993;DHT22;44782;0.000;0.000;2022-07-18T07:48:27;26.60;40.10
58993;DHT22;44782;0.000;0.000;2022-07-18T07:50:43;26.60;40.10
58993;DHT22;44782;0.000;0.000;2022-07-18T07:52:59;26.60;40.10
58993;DHT22;44782;0.000;0.000;2022-07-18T07:55:14;26.60;40.10
58993;DHT22;44782;0.000;0.000;2022-07-18T07:57:30;26.60;40.20
58993;DHT22;44782;0.000;0.000;2022-07-18T07:59:46;26.60;40.30
58993;DHT22;44782;0.000;0.000;2022-07-18T08:02:01;26.60;40.20
58993;DHT22;44782;0.000;0.000;2022-07-18T08:04:17;26.60;40.20
58993;DHT22;44782;0.000;0.000;2022-07-18T08:06:33;26.60;40.20
58993;DHT22;44782;0.000;0.000;2022-07-18T08:08:48;26.60;40.20
58993;DHT22;44782;0.000;0.000;2022-07-18T08:11:04;26.60;40.20
58993;DHT22;44782;0.000;0.000;2022-07-18T08:13:20;26.60;40.30
58993;DHT22;44782;0.000;0.000;2022-07-18T08:15:37;26.60;40.30
58993;DHT22;44782;0.000;0.000;2022-07-18T08:17:53;26.60;40.40
58993;DHT22;44782;0.000;0.000;2022-07-18T08:20:09;26.60;40.30
58993;DHT22;44782;0.000;0.000;2022-07-18T08:22:26;26.60;40.40
58993;DHT22;44782;0.000;0.000;2022-07-18T08:24:42;26.60;40.40
58993;DHT22;44782;0.000;0.000;2022-07-18T08:26:57;26.60;40.40
58993;DHT22;44782;0.000;0.000;2022-07-18T08:29:13;26.50;40.40
58993;DHT22;44782;0.000;0.000;2022-07-18T08:31:29;26.60;40.50
58993;DHT22;44782;0.000;0.000;2022-07-18T08:33:45;26.60;40.60
58993;DHT22;44782;0.000;0.000;2022-07-18T08:36:01;26.50;40.50
58993;DHT22;44782;0.000;0.000;2022-07-18T08:38:16;26.60;40.60
58993;DHT22;44782;0.000;0.000;2022-07-18T08:40:32;26.50;40.60
58993;DHT22;44782;0.000;0.000;2022-07-18T08:42:53;26.50;40.60
58993;DHT22;44782;0.000;0.000;2022-07-18T08:45:09;26.60;40.60
58993;DHT22;44782;0.000;0.000;2022-07-18T08:47:27;26.50;40.60
58993;DHT22;44782;0.000;0.000;2022-07-18T08:49:44;26.50;40.60
58993;DHT22;44782;0.000;0.000;2022-07-18T08:52:00;26.60;40.70
58993;DHT22;44782;0.000;0.000;2022-07-18T08:54:16;26.60;40.70
58993;DHT22;44782;0.000;0.000;2022-07-18T08:56:32;26.60;40.70
58993;DHT22;44782;0.000;0.000;2022-07-18T08:58:47;26.60;40.70
58993;DHT22;44782;0.000;0.000;2022-07-18T09:01:03;26.60;40.70
58993;DHT22;44782;0.000;0.000;2022-07-18T09:03:19;26.60;40.70
58993;DHT22;44782;0.000;0.000;2022-07-18T09:05:34;26.60;40.70
58993;DHT22;44782;0.000;0.000;2022-07-18T09:07:50;26.60;40.70
58993;DHT22;44782;0.000;0.000;2022-07-18T09:10:06;26.60;40.80
58993;DHT22;44782;0.000;0.000;2022-07-18T09:12:24;26.60;40.80
58993;DHT22;44782;0.000;0.000;2022-07-18T09:14:41;26.60;41.00
58993;DHT22;44782;0.000;0.000;2022-07-18T09:17:05;26.60;41.10
58993;DHT22;44782;0.000;0.000;2022-07-18T09:19:22;26.60;41.20
58993;DHT22;44782;0.000;0.000;2022-07-18T09:21:37;26.60;41.40
58993;DHT22;44782;0.000;0.000;2022-07-18T09:23:54;26.60;41.40
58993;DHT22;44782;0.000;0.000;2022-07-18T09:26:11;26.60;41.50
58993;DHT22;44782;0.000;0.000;2022-07-18T09:28:27;26.60;41.50
58993;DHT22;44782;0.000;0.000;2022-07-18T09:30:43;26.60;41.50
58993;DHT22;44782;0.000;0.000;2022-07-18T09:33:09;26.60;41.50
58993;DHT22;44782;0.000;0.000;2022-07-18T09:35:28;26.60;41.40
58993;DHT22;44782;0.000;0.000;2022-07-18T09:38:07;26.60;41.40
58993;DHT22;44782;0.000;0.000;2022-07-18T09:40:33;26.60;41.50
58993;DHT22;44782;0.000;0.000;2022-07-18T09:42:50;26.60;41.50
58993;DHT22;44782;0.000;0.000;2022-07-18T09:45:07;26.60;41.60
58993;DHT22;44782;0.000;0.000;2022-07-18T09:47:22;26.60;41.70
58993;DHT22;44782;0.000;0.000;2022-07-18T09:49:38;26.60;41.80
58993;DHT22;44782;0.000;0.000;2022-07-18T09:52:08;26.60;41.80
58993;DHT22;44782;0.000;0.000;2022-07-18T09:54:38;26.60;42.00
58993;DHT22;44782;0.000;0.000;2022-07-18T09:56:54;26.60;42.10
58993;DHT22;44782;0.000;0.000;2022-07-18T09:59:10;26.60;42.80
58993;DHT22;44782;0.000;0.000;2022-07-18T10:01:27;26.60;42.10
58993;DHT22;44782;0.000;0.000;2022-07-18T10:03:43;26.60;42.10
58993;DHT22;44782;0.000;0.000;2022-07-18T10:05:59;26.60;42.10
58993;DHT22;44782;0.000;0.000;2022-07-18T10:08:26;26.60;42.10
58993;DHT22;44782;0.000;0.000;2022-07-18T10:10:46;26.60;42.20
58993;DHT22;44782;0.000;0.000;2022-07-18T10:13:03;26.50;42.20
58993;DHT22;44782;0.000;0.000;2022-07-18T10:15:25;26.50;42.60
58993;DHT22;44782;0.000;0.000;2022-07-18T10:17:42;26.50;42.60
58993;DHT22;44782;0.000;0.000;2022-07-18T10:20:05;26.50;42.60
58993;DHT22;44782;0.000;0.000;2022-07-18T10:22:22;26.50;42.50
58993;DHT22;44782;0.000;0.000;2022-07-18T10:24:39;26.60;42.50
58993;DHT22;44782;0.000;0.000;2022-07-18T10:27:16;26.50;42.50
58993;DHT22;44782;0.000;0.000;2022-07-18T10:29:32;26.50;42.50
58993;DHT22;44782;0.000;0.000;2022-07-18T10:32:02;26.50;42.40
58993;DHT22;44782;0.000;0.000;2022-07-18T10:34:28;26.50;42.50
58993;DHT22;44782;0.000;0.000;2022-07-18T10:41:23;26.50;42.50
58993;DHT22;44782;0.000;0.000;2022-07-18T10:43:41;26.50;42.50
58993;DHT22;44782;0.000;0.000;2022-07-18T10:45:58;26.50;42.50
58993;DHT22;44782;0.000;0.000;2022-07-18T10:51:09;26.50;42.50
58993;DHT22;44782;0.000;0.000;2022-07-18T10:56:09;26.50;42.30
58993;DHT22;44782;0.000;0.000;2022-07-18T10:58:25;26.50;42.40
58993;DHT22;44782;0.000;0.000;2022-07-18T11:00:42;26.50;42.50
58993;DHT22;44782;0.000;0.000;2022-07-18T11:03:10;26.50;42.50
58993;DHT22;44782;0.000;0.000;2022-07-18T11:10:13;26.50;42.50
58993;DHT22;44782;0.000;0.000;2022-07-18T11:12:31;26.50;42.50
58993;DHT22;44782;0.000;0.000;2022-07-18T11:15:07;26.50;43.20
58993;DHT22;44782;0.000;0.000;2022-07-18T11:20:27;26.50;42.60
58993;DHT22;44782;0.000;0.000;2022-07-18T11:22:43;26.40;42.50
58993;DHT22;44782;0.000;0.000;2022-07-18T11:24:59;26.40;42.50
58993;DHT22;44782;0.000;0.000;2022-07-18T11:27:15;26.50;42.50
58993;DHT22;44782;0.000;0.000;2022-07-18T11:29:40;26.40;42.50
58993;DHT22;44782;0.000;0.000;2022-07-18T11:31:57;26.50;42.60
58993;DHT22;44782;0.000;0.000;2022-07-18T11:34:15;26.40;42.50
58993;DHT22;44782;0.000;0.000;2022-07-18T11:36:31;26.50;42.60
58993;DHT22;44782;0.000;0.000;2022-07-18T11:38:53;26.50;42.70
58993;DHT22;44782;0.000;0.000;2022-07-18T11:41:09;26.40;42.50
58993;DHT22;44782;0.000;0.000;2022-07-18T11:43:26;26.50;42.70
58993;DHT22;44782;0.000;0.000;2022-07-18T11:45:42;26.50;42.70
58993;DHT22;44782;0.000;0.000;2022-07-18T11:47:58;26.40;42.60
58993;DHT22;44782;0.000;0.000;2022-07-18T11:50:15;26.50;42.70
58993;DHT22;44782;0.000;0.000;2022-07-18T11:52:31;26.50;42.70
58993;DHT22;44782;0.000;0.000;2022-07-18T11:54:48;26.50;42.70
58993;DHT22;44782;0.000;0.000;2022-07-18T11:57:04;26.50;42.70
58993;DHT22;44782;0.000;0.000;2022-07-18T11:59:20;26.50;42.70
58993;DHT22;44782;0.000;0.000;2022-07-18T12:01:36;26.50;42.70
58993;DHT22;44782;0.000;0.000;2022-07-18T12:03:52;26.50;42.70
58993;DHT22;44782;0.000;0.000;2022-07-18T12:06:21;26.50;43.20
58993;DHT22;44782;0.000;0.000;2022-07-18T12:08:42;26.50;42.80
58993;DHT22;44782;0.000;0.000;2022-07-18T12:11:11;26.50;42.80
58993;DHT22;44782;0.000;0.000;2022-07-18T12:13:45;26.50;42.80
58993;DHT22;44782;0.000;0.000;2022-07-18T12:16:01;26.50;42.80
58993;DHT22;44782;0.000;0.000;2022-07-18T12:18:28;26.50;42.80
58993;DHT22;44782;0.000;0.000;2022-07-18T12:20:43;26.50;42.70
58993;DHT22;44782;0.000;0.000;2022-07-18T12:23:07;26.50;42.70
58993;DHT22;44782;0.000;0.000;2022-07-18T12:25:37;26.50;42.70
58993;DHT22;44782;0.000;0.000;2022-07-18T12:27:53;26.50;42.70
58993;DHT22;44782;0.000;0.000;2022-07-18T12:32:29;26.50;42.70
58993;DHT22;44782;0.000;0.000;2022-07-18T12:35:06;26.50;42.70
58993;DHT22;44782;0.000;0.000;2022-07-18T12:37:26;26.50;42.60
58993;DHT22;44782;0.000;0.000;2022-07-18T12:39:42;26.50;42.70
58993;DHT22;44782;0.000;0.000;2022-07-18T12:41:59;26.50;42.70
58993;DHT22;44782;0.000;0.000;2022-07-18T12:44:15;26.50;42.60
58993;DHT22;44782;0.000;0.000;2022-07-18T12:46:31;26.50;42.70
58993;DHT22;44782;0.000;0.000;2022-07-18T12:48:46;26.50;42.70
58993;DHT22;44782;0.000;0.000;2022-07-18T12:51:11;26.50;42.60
58993;DHT22;44782;0.000;0.000;2022-07-18T12:53:28;26.50;42.60
58993;DHT22;44782;0.000;0.000;2022-07-18T12:55:44;26.50;42.70
58993;DHT22;44782;0.000;0.000;2022-07-18T12:58:00;26.60;42.70
58993;DHT22;44782;0.000;0.000;2022-07-18T13:00:17;26.50;42.70
58993;DHT22;44782;0.000;0.000;2022-07-18T13:02:32;26.50;42.70
58993;DHT22;44782;0.000;0.000;2022-07-18T13:04:48;26.50;42.60
58993;DHT22;44782;0.000;0.000;2022-07-18T13:07:04;26.50;42.60
58993;DHT22;44782;0.000;0.000;2022-07-18T13:09:19;26.60;42.70
58993;DHT22;44782;0.000;0.000;2022-07-18T13:11:35;26.50;42.60
58993;DHT22;44782;0.000;0.000;2022-07-18T13:13:51;26.60;42.70
58993;DHT22;44782;0.000;0.000;2022-07-18T13:16:06;26.50;42.70
58993;DHT22;44782;0.000;0.000;2022-07-18T13:18:22;26.50;42.80
58993;DHT22;44782;0.000;0.000;2022-07-18T13:20:40;26.50;42.90
58993;DHT22;44782;0.000;0.000;2022-07-18T13:22:56;26.60;43.00
58993;DHT22;44782;0.000;0.000;2022-07-18T13:25:12;26.60;43.10
58993;DHT22;44782;0.000;0.000;2022-07-18T13:27:28;26.60;43.10
58993;DHT22;44782;0.000;0.000;2022-07-18T13:29:43;26.60;43.30
58993;DHT22;44782;0.000;0.000;2022-07-18T13:31:59;26.60;43.30
58993;DHT22;44782;0.000;0.000;2022-07-18T13:34:15;26.60;43.40
58993;DHT22;44782;0.000;0.000;2022-07-18T13:36:31;26.60;43.50
58993;DHT22;44782;0.000;0.000;2022-07-18T13:38:47;26.60;43.50
58993;DHT22;44782;0.000;0.000;2022-07-18T13:41:03;26.60;43.60
58993;DHT22;44782;0.000;0.000;2022-07-18T13:43:19;26.70;43.70
58993;DHT22;44782;0.000;0.000;2022-07-18T13:45:35;26.60;43.80
58993;DHT22;44782;0.000;0.000;2022-07-18T13:47:50;26.60;43.80
58993;DHT22;44782;0.000;0.000;2022-07-18T13:50:07;26.60;43.80
58993;DHT22;44782;0.000;0.000;2022-07-18T13:52:23;26.70;43.70
58993;DHT22;44782;0.000;0.000;2022-07-18T13:54:38;26.60;43.70
58993;DHT22;44782;0.000;0.000;2022-07-18T13:56:54;26.60;43.90
58993;DHT22;44782;0.000;0.000;2022-07-18T13:59:10;26.50;44.00
58993;DHT22;44782;0.000;0.000;2022-07-18T14:01:26;26.50;44.20
58993;DHT22;44782;0.000;0.000;2022-07-18T14:03:41;26.50;44.30
58993;DHT22;44782;0.000;0.000;2022-07-18T14:05:57;26.50;44.20
58993;DHT22;44782;0.000;0.000;2022-07-18T14:08:13;26.60;44.40
58993;DHT22;44782;0.000;0.000;2022-07-18T14:10:29;26.60;44.30
58993;DHT22;44782;0.000;0.000;2022-07-18T14:12:45;26.60;44.30
58993;DHT22;44782;0.000;0.000;2022-07-18T14:15:00;26.60;44.30
58993;DHT22;44782;0.000;0.000;2022-07-18T14:17:16;26.60;44.30
58993;DHT22;44782;0.000;0.000;2022-07-18T14:19:32;26.60;44.20
58993;DHT22;44782;0.000;0.000;2022-07-18T14:21:48;26.60;44.10
58993;DHT22;44782;0.000;0.000;2022-07-18T14:24:05;26.70;44.10
58993;DHT22;44782;0.000;0.000;2022-07-18T14:26:20;26.60;44.10
58993;DHT22;44782;0.000;0.000;2022-07-18T14:28:36;26.70;44.10
58993;DHT22;44782;0.000;0.000;2022-07-18T14:30:52;26.70;44.20
58993;DHT22;44782;0.000;0.000;2022-07-18T14:33:07;26.70;44.80
58993;DHT22;44782;0.000;0.000;2022-07-18T14:35:23;26.70;44.00
58993;DHT22;44782;0.000;0.000;2022-07-18T14:37:39;26.70;44.10
58993;DHT22;44782;0.000;0.000;2022-07-18T14:39:55;26.80;44.20
58993;DHT22;44782;0.000;0.000;2022-07-18T14:42:10;26.70;44.80
58993;DHT22;44782;0.000;0.000;2022-07-18T14:44:27;26.70;44.40
58993;DHT22;44782;0.000;0.000;2022-07-18T14:46:43;26.80;44.40
58993;DHT22;44782;0.000;0.000;2022-07-18T14:48:59;26.80;44.40
58993;DHT22;44782;0.000;0.000;2022-07-18T14:51:14;26.80;44.40
58993;DHT22;44782;0.000;0.000;2022-07-18T14:53:30;26.90;44.40
58993;DHT22;44782;0.000;0.000;2022-07-18T14:55:46;26.90;44.40
58993;DHT22;44782;0.000;0.000;2022-07-18T14:58:01;26.90;44.30